Time;durP1;ratioP1;P1;durP2;ratioP2;P2;SDS_P1;SDS_P2;PMS_P1;PMS_P2;Temp;Humidity;BMP_temperature;BMP_pressure;BME280_temperature;BME280_humidity;BME280_pressure;Samples;Min_cycle;Max_cycle;Signal;HPM_P1;HPM_P2
2023/03/05 00:01:32;;;;;;;39.80;4.72;;;2.80;99.90;;;;;;4898832;29;20033;-63
2023/03/05 00:03:58;;;;;;;18.25;3.45;;;2.90;99.90;;;;;;4898331;29;20506;-63
2023/03/05 00:06:26;;;;;;;22.50;3.78;;;2.70;99.90;;;;;;4898902;29;20032;-63
2023/03/05 00:08:52;;;;;;;35.33;5.03;;;;;;;;;;4898980;29;20107;-64
2023/03/05 00:11:19;;;;;;;23.40;2.83;;;2.70;99.90;;;;;;4898312;29;20164;-62
2023/03/05 00:13:45;;;;;;;30.58;4.13;;;;;;;;;;4898605;29;20028;-62
2023/03/05 00:16:13;;;;;;;19.25;3.60;;;2.50;99.90;;;;;;4898495;29;20038;-61
2023/03/05 00:18:39;;;;;;;23.38;2.85;;;;;;;;;;4898626;29;20060;-62
2023/03/05 00:21:19;;;;;;;28.10;2.97;;;2.50;99.90;;;;;;4898362;29;20028;-61
2023/03/05 00:23:44;;;;;;;23.17;3.92;;;2.50;99.90;;;;;;4881204;29;20025;-62
2023/03/05 00:26:10;;;;;;;19.80;3.42;;;;;;;;;;4898358;29;20390;-62
2023/03/05 00:28:36;;;;;;;18.95;1.95;;;;;;;;;;4898452;29;20050;-62
2023/03/05 00:31:02;;;;;;;20.63;3.85;;;;;;;;;;4898395;29;20547;-64
2023/03/05 00:33:28;;;;;;;26.40;1.95;;;;;;;;;;4897930;29;20525;-63
2023/03/05 00:35:54;;;;;;;21.10;2.05;;;;;;;;;;4898065;29;20025;-61
2023/03/05 00:38:20;;;;;;;25.17;2.45;;;2.10;99.90;;;;;;4898866;29;20064;-62
2023/03/05 00:40:49;;;;;;;29.00;2.75;;;2.30;99.90;;;;;;4898761;29;20027;-62
2023/03/05 00:43:15;;;;;;;19.70;2.75;;;2.30;99.90;;;;;;4898095;29;20072;-60
2023/03/05 00:45:41;;;;;;;26.95;2.38;;;;;;;;;;4898477;29;20025;-63
2023/03/05 00:48:07;;;;;;;27.05;3.08;;;;;;;;;;4898672;29;20503;-62
2023/03/05 00:50:33;;;;;;;37.30;5.45;;;2.10;99.90;;;;;;4897949;29;20083;-62
2023/03/05 00:52:59;;;;;;;32.85;3.17;;;;;;;;;;4897684;29;20028;-61
2023/03/05 00:55:24;;;;;;;23.88;2.13;;;2.00;99.90;;;;;;4898083;29;20391;-62
2023/03/05 00:57:50;;;;;;;19.30;2.75;;;2.10;99.90;;;;;;4898117;29;20029;-62
2023/03/05 01:00:16;;;;;;;18.95;1.63;;;2.10;99.90;;;;;;4897699;29;20029;-63
2023/03/05 01:02:42;;;;;;;22.88;2.28;;;;;;;;;;4897830;29;20033;-61
2023/03/05 01:05:11;;;;;;;32.72;2.35;;;2.10;99.90;;;;;;4897546;29;20032;-62
2023/03/05 01:07:37;;;;;;;26.95;2.15;;;;;;;;;;4897809;29;20029;-62
2023/03/05 01:10:04;;;;;;;21.50;2.42;;;2.20;99.90;;;;;;4897726;29;20024;-61
2023/03/05 01:12:29;;;;;;;23.58;2.22;;;2.10;99.90;;;;;;4897162;29;20033;-63
2023/03/05 01:14:55;;;;;;;26.92;2.10;;;2.10;99.90;;;;;;4897394;29;20113;-63
2023/03/05 01:17:21;;;;;;;19.33;2.05;;;;;;;;;;4897756;29;20428;-62
2023/03/05 01:19:47;;;;;;;21.25;1.88;;;2.00;99.90;;;;;;4897421;29;20060;-62
2023/03/05 01:22:13;;;;;;;18.25;2.08;;;;;;;;;;4897525;29;20108;-63
2023/03/05 01:24:38;;;;;;;19.45;1.83;;;2.30;99.90;;;;;;4897096;29;20088;-62
2023/03/05 01:27:04;;;;;;;17.48;1.60;;;2.20;99.90;;;;;;4897527;29;20032;-62
2023/03/05 01:29:30;;;;;;;7.63;2.00;;;;;;;;;;4897373;29;20065;-62
2023/03/05 01:31:56;;;;;;;20.67;1.98;;;;;;;;;;4897380;29;20027;-62
2023/03/05 01:34:22;;;;;;;5.28;0.95;;;;;;;;;;4897046;29;20029;-62
2023/03/05 01:36:50;;;;;;;5.38;1.60;;;2.10;99.90;;;;;;4897053;29;20220;-62
2023/03/05 01:39:16;;;;;;;10.50;1.15;;;2.20;99.90;;;;;;4897062;29;20033;-62
2023/03/05 01:41:42;;;;;;;20.90;1.55;;;1.80;99.90;;;;;;4897144;29;20505;-62
2023/03/05 01:44:21;;;;;;;13.82;1.40;;;2.10;99.90;;;;;;4896957;29;20032;-64
2023/03/05 01:46:47;;;;;;;13.02;1.73;;;;;;;;;;4896819;29;20061;-62
2023/03/05 01:49:29;;;;;;;19.83;1.20;;;2.20;99.90;;;;;;4896533;29;20036;-63
2023/03/05 01:52:16;;;;;;;9.60;1.08;;;1.60;99.90;;;;;;4897060;29;20056;-65
2023/03/05 01:54:53;;;;;;;14.85;2.15;;;2.00;99.90;;;;;;4896713;29;20028;-63
2023/03/05 01:57:35;;;;;;;7.68;1.00;;;2.10;99.90;;;;;;4897126;29;20028;-62
2023/03/05 02:00:13;;;;;;;13.90;3.10;;;1.90;99.90;;;;;;4896896;29;20039;-61
2023/03/05 02:02:40;;;;;;;10.88;1.50;;;1.80;99.90;;;;;;4896740;29;20024;-62
2023/03/05 02:05:10;;;;;;;11.48;1.40;;;1.90;99.90;;;;;;4896574;29;20024;-62
2023/03/05 02:07:38;;;;;;;6.65;1.35;;;;;;;;;;4896730;29;20040;-64
2023/03/05 02:10:19;;;;;;;17.05;1.23;;;1.90;99.90;;;;;;4896669;29;20123;-62
2023/03/05 02:12:47;;;;;;;16.73;1.23;;;1.80;99.90;;;;;;4896063;29;20040;-64
2023/03/05 02:15:13;;;;;;;9.13;1.30;;;;;;;;;;4896234;29;20079;-62
2023/03/05 02:17:39;;;;;;;12.07;1.65;;;;;;;;;;4896371;29;20031;-62
2023/03/05 02:20:13;;;;;;;3.17;1.00;;;1.70;99.90;;;;;;4896620;29;20457;-62
2023/03/05 02:22:38;;;;;;;7.73;1.00;;;1.80;99.90;;;;;;4896277;29;20131;-64
2023/03/05 02:25:18;;;;;;;11.95;1.30;;;1.80;99.90;;;;;;4896391;29;20020;-63
2023/03/05 02:27:54;;;;;;;9.05;1.00;;;1.70;99.90;;;;;;4896393;29;20047;-63
2023/03/05 02:30:20;;;;;;;9.18;1.23;;;;;;;;;;4896312;29;20024;-62
2023/03/05 02:32:46;;;;;;;9.13;1.38;;;1.60;99.90;;;;;;4896254;29;20037;-63
2023/03/05 02:35:12;;;;;;;9.45;1.00;;;;;;;;;;4896088;29;20521;-63
2023/03/05 02:37:38;;;;;;;11.07;1.08;;;;;;;;;;4896464;29;20364;-63
2023/03/05 02:40:04;;;;;;;3.63;0.80;;;;;;;;;;4896467;29;20040;-63
2023/03/05 02:42:32;;;;;;;6.25;1.00;;;;;;;;;;4896358;29;20047;-64
2023/03/05 02:44:59;;;;;;;8.35;1.00;;;1.60;99.90;;;;;;4895944;29;20032;-63
2023/03/05 02:47:26;;;;;;;15.63;0.82;;;1.40;99.90;;;;;;4896390;29;20032;-63
2023/03/05 02:49:51;;;;;;;9.57;1.20;;;1.70;99.90;;;;;;4896222;29;20092;-63
2023/03/05 02:52:17;;;;;;;10.68;1.48;;;;;;;;;;4896388;29;20032;-62
2023/03/05 02:54:43;;;;;;;12.63;1.20;;;1.60;99.90;;;;;;4895760;29;20032;-65
2023/03/05 02:57:09;;;;;;;9.43;1.10;;;;;;;;;;4896328;29;20497;-62
2023/03/05 02:59:35;;;;;;;7.88;1.08;;;;;;;;;;4898243;29;20024;-63
2023/03/05 03:02:01;;;;;;;17.45;1.05;;;;;;;;;;4914259;23;20143;-65
2023/03/05 03:04:27;;;;;;;17.80;1.50;;;;;;;;;;4899258;29;20040;-64
2023/03/05 03:06:53;;;;;;;7.85;1.35;;;;;;;;;;4900185;29;20032;-64
2023/03/05 03:09:19;;;;;;;19.48;1.10;;;1.60;99.90;;;;;;4883169;29;20029;-65
2023/03/05 03:11:44;;;;;;;7.90;0.90;;;1.60;99.90;;;;;;4899147;29;20419;-64
2023/03/05 03:14:10;;;;;;;13.98;0.93;;;1.60;99.90;;;;;;4882526;29;20033;-65
2023/03/05 03:16:36;;;;;;;13.73;1.77;;;1.60;99.90;;;;;;4899603;29;20033;-66
2023/03/05 03:19:02;;;;;;;10.63;1.05;;;;;;;;;;4899606;29;20407;-65
2023/03/05 03:21:27;;;;;;;10.90;1.15;;;1.60;99.90;;;;;;4899613;29;20067;-65
2023/03/05 03:23:53;;;;;;;15.43;1.15;;;;;;;;;;4899266;29;20120;-66
2023/03/05 03:26:19;;;;;;;9.32;1.60;;;1.50;99.90;;;;;;4899511;29;20029;-64
2023/03/05 03:28:45;;;;;;;5.10;0.73;;;1.70;99.90;;;;;;4899370;29;20043;-63
2023/03/05 03:31:10;;;;;;;12.15;1.45;;;1.60;99.90;;;;;;4899053;29;20039;-64
2023/03/05 03:33:36;;;;;;;8.88;1.42;;;;;;;;;;4899027;29;20029;-66
2023/03/05 03:36:03;;;;;;;9.45;1.05;;;1.60;99.90;;;;;;4899432;29;20497;-65
2023/03/05 03:38:29;;;;;;;13.38;1.10;;;1.50;99.90;;;;;;4899148;29;20020;-66
2023/03/05 03:40:55;;;;;;;16.85;1.13;;;1.70;99.90;;;;;;4899299;29;20108;-65
2023/03/05 03:43:21;;;;;;;14.35;1.27;;;;;;;;;;4898956;29;20501;-65
2023/03/05 03:45:47;;;;;;;7.80;1.00;;;;;;;;;;4899263;29;20025;-66
2023/03/05 03:48:13;;;;;;;6.85;1.00;;;;;;;;;;4899964;29;20028;-65
2023/03/05 03:50:43;;;;;;;7.50;1.30;;;1.20;99.90;;;;;;4899409;29;20100;-65
2023/03/05 03:53:13;;;;;;;11.10;1.20;;;1.40;99.90;;;;;;4898954;29;20031;-65
2023/03/05 03:55:39;;;;;;;10.63;0.98;;;;;;;;;;4898679;29;20088;-65
2023/03/05 03:58:05;;;;;;;11.48;1.23;;;1.40;99.90;;;;;;4899038;29;20108;-65
2023/03/05 04:00:31;;;;;;;6.07;0.88;;;1.20;99.90;;;;;;4898635;29;20474;-63
2023/03/05 04:02:56;;;;;;;7.75;1.60;;;1.30;99.90;;;;;;4898967;29;20028;-65
2023/03/05 04:05:22;;;;;;;8.25;0.80;;;0.80;99.90;;;;;;4898619;29;20036;-66
2023/03/05 04:07:48;;;;;;;6.22;0.95;;;;;;;;;;4898715;29;20025;-66
2023/03/05 04:10:14;;;;;;;9.05;1.00;;;;;;;;;;4897915;29;20033;-66
2023/03/05 04:12:42;;;;;;;4.50;0.60;;;;;;;;;;4898135;29;20025;-66
2023/03/05 04:15:09;;;;;;;19.95;1.00;;;1.00;99.90;;;;;;4898175;29;20116;-65
2023/03/05 04:17:35;;;;;;;6.47;1.20;;;0.90;99.90;;;;;;4898545;29;20032;-65
2023/03/05 04:20:01;;;;;;;3.67;0.77;;;0.90;99.90;;;;;;4898430;29;20024;-65
2023/03/05 04:22:27;;;;;;;15.93;1.50;;;;;;;;;;4898425;29;20028;-65
2023/03/05 04:24:53;;;;;;;9.20;1.00;;;;;;;;;;4898166;29;20509;-65
2023/03/05 04:27:19;;;;;;;10.00;1.23;;;;;;;;;;4898468;29;20036;-66
2023/03/05 04:29:45;;;;;;;10.75;1.25;;;;;;;;;;4898382;29;20491;-65
2023/03/05 04:32:10;;;;;;;8.98;1.17;;;0.80;99.90;;;;;;4898382;29;20040;-64
2023/03/05 04:34:37;;;;;;;7.32;1.00;;;0.80;99.90;;;;;;4881208;29;20423;-64
2023/03/05 04:37:02;;;;;;;3.00;0.65;;;0.70;99.90;;;;;;4898437;29;20033;-63
2023/03/05 04:39:28;;;;;;;5.70;0.90;;;0.90;99.90;;;;;;4898002;29;20364;-64
2023/03/05 04:41:54;;;;;;;5.47;1.23;;;0.70;99.90;;;;;;4898071;29;20028;-65
2023/03/05 04:44:22;;;;;;;8.77;1.30;;;;;;;;;;4897755;29;20148;-65
2023/03/05 04:46:48;;;;;;;4.40;1.00;;;;;;;;;;4897885;29;20123;-65
2023/03/05 04:49:14;;;;;;;23.52;6.40;;;;;;;;;;4897988;29;20033;-61
2023/03/05 04:51:40;;;;;;;9.18;1.15;;;0.70;99.90;;;;;;4897439;29;20128;-65
2023/03/05 04:54:06;;;;;;;4.85;0.95;;;;;;;;;;4897514;29;20032;-64
2023/03/05 04:56:32;;;;;;;11.35;0.77;;;;;;;;;;4897780;29;20036;-65
2023/03/05 04:58:58;;;;;;;11.20;1.20;;;0.80;99.90;;;;;;4897691;29;20029;-65
2023/03/05 05:01:24;;;;;;;8.57;1.63;;;;;;;;;;4897530;29;20031;-65
2023/03/05 05:03:51;;;;;;;6.80;1.08;;;;;;;;;;4897473;29;20147;-65
2023/03/05 05:06:17;;;;;;;9.13;1.50;;;;;;;;;;4897750;29;20033;-66
2023/03/05 05:08:43;;;;;;;6.07;0.70;;;;;;;;;;4897453;29;20032;-64
2023/03/05 05:11:13;;;;;;;11.52;1.10;;;0.80;99.90;;;;;;4897237;29;20032;-65
2023/03/05 05:13:39;;;;;;;10.02;1.10;;;;;;;;;;4897196;29;20398;-65
2023/03/05 05:16:08;;;;;;;5.90;1.10;;;0.80;99.90;;;;;;4897460;29;20112;-65
2023/03/05 05:18:34;;;;;;;9.18;1.00;;;0.70;99.90;;;;;;4897330;29;20024;-64
2023/03/05 05:21:00;;;;;;;6.30;0.90;;;1.30;99.90;;;;;;4897356;29;20368;-62
2023/03/05 05:23:26;;;;;;;5.28;0.75;;;0.70;99.90;;;;;;4897009;29;20099;-64
2023/03/05 05:26:03;;;;;;;22.73;5.15;;;0.60;99.90;;;;;;4897459;29;20024;-59
2023/03/05 05:28:29;;;;;;;8.80;0.82;;;0.80;99.90;;;;;;4897219;29;20032;-65
2023/03/05 05:30:55;;;;;;;22.40;1.42;;;0.70;99.90;;;;;;4896652;29;20111;-64
2023/03/05 05:33:21;;;;;;;11.15;1.15;;;0.80;99.90;;;;;;4896735;29;20104;-64
2023/03/05 05:35:46;;;;;;;10.90;0.90;;;0.60;99.90;;;;;;4897395;29;20542;-62
2023/03/05 05:38:12;;;;;;;9.32;0.90;;;0.60;99.90;;;;;;4897295;29;20505;-61
2023/03/05 05:40:38;;;;;;;12.25;2.33;;;;;;;;;;4897105;29;20021;-63
2023/03/05 05:43:04;;;;;;;18.20;1.35;;;0.70;99.90;;;;;;4896675;29;20518;-64
2023/03/05 05:45:30;;;;;;;6.15;1.00;;;;;;;;;;4897087;29;20036;-64
2023/03/05 05:47:56;;;;;;;11.20;0.98;;;;;;;;;;4897013;29;20039;-62
2023/03/05 05:50:22;;;;;;;7.60;0.82;;;0.80;99.90;;;;;;4897219;29;20319;-62
2023/03/05 05:52:49;;;;;;;6.13;0.73;;;0.90;99.90;;;;;;4896920;29;20180;-60
2023/03/05 05:55:15;;;;;;;13.25;1.23;;;0.80;99.90;;;;;;4896555;29;20029;-65
2023/03/05 05:57:41;;;;;;;12.02;1.10;;;0.80;99.90;;;;;;4896723;29;20017;-65
2023/03/05 06:00:09;;;;;;;8.68;1.20;;;0.80;99.90;;;;;;4896434;29;20415;-62
2023/03/05 06:02:40;;;;;;;7.53;1.10;;;0.90;99.90;;;;;;4896496;29;20035;-64
2023/03/05 06:05:07;;;;;;;29.20;5.65;;;1.00;99.90;;;;;;4896166;29;20513;-65
2023/03/05 06:07:36;;;;;;;11.82;1.38;;;1.00;99.90;;;;;;4896572;29;20033;-65
2023/03/05 06:10:02;;;;;;;9.75;1.00;;;1.00;99.90;;;;;;4896314;29;20032;-65
2023/03/05 06:12:28;;;;;;;12.80;3.17;;;;;;;;;;4895899;29;20088;-66
2023/03/05 06:14:54;;;;;;;11.88;1.40;;;;;;;;;;4896300;29;20036;-65
2023/03/05 06:17:20;;;;;;;12.48;1.75;;;1.80;99.90;;;;;;4896433;29;20035;-65
2023/03/05 06:19:46;;;;;;;13.13;1.17;;;;;;;;;;4896500;29;20108;-65
2023/03/05 06:22:12;;;;;;;7.32;1.27;;;;;;;;;;4896150;29;20080;-66
2023/03/05 06:24:38;;;;;;;9.60;1.17;;;;;;;;;;4896040;29;20029;-64
2023/03/05 06:27:05;;;;;;;13.52;1.70;;;1.30;99.90;;;;;;4896266;29;20024;-64
2023/03/05 06:29:31;;;;;;;8.90;1.48;;;1.30;99.90;;;;;;4896371;29;20029;-64
2023/03/05 06:31:57;;;;;;;14.85;1.45;;;;;;;;;;4896178;29;20040;-61
2023/03/05 06:34:23;;;;;;;14.38;2.95;;;;;;;;;;4895554;29;20068;-65
2023/03/05 06:36:48;;;;;;;10.25;1.50;;;1.50;99.90;;;;;;4896243;29;20083;-66
2023/03/05 06:39:14;;;;;;;2.90;1.10;;;1.50;99.90;;;;;;4896327;29;20036;-64
2023/03/05 06:41:40;;;;;;;10.07;1.17;;;1.30;99.90;;;;;;4895871;29;20052;-66
2023/03/05 06:44:06;;;;;;;3.88;0.88;;;;;;;;;;4896024;29;20107;-66
2023/03/05 06:46:36;;;;;;;2.92;0.80;;;1.50;99.90;;;;;;4896283;29;20400;-63
2023/03/05 06:49:03;;;;;;;8.85;1.90;;;1.20;99.90;;;;;;4896038;29;20032;-66
2023/03/05 06:51:31;;;;;;;4.80;0.98;;;1.60;99.90;;;;;;4896008;29;20606;-65
2023/03/05 06:54:03;;;;;;;6.13;0.80;;;1.60;99.90;;;;;;4895673;29;20028;-66
2023/03/05 06:56:28;;;;;;;6.57;1.38;;;1.20;99.90;;;;;;4896135;29;20031;-65
2023/03/05 06:58:54;;;;;;;4.40;1.00;;;1.60;99.90;;;;;;4896210;29;20024;-65
2023/03/05 07:01:20;;;;;;;6.68;1.10;;;1.70;99.90;;;;;;4895978;29;20491;-65
2023/03/05 07:03:50;;;;;;;14.20;1.55;;;1.80;99.90;;;;;;4896046;29;20036;-59
2023/03/05 07:06:16;;;;;;;3.55;1.23;;;1.30;99.90;;;;;;4896301;29;20039;-63
2023/03/05 07:08:43;;;;;;;6.00;1.20;;;1.70;99.90;;;;;;4896051;29;20111;-65
2023/03/05 07:11:11;;;;;;;9.00;1.10;;;1.50;99.90;;;;;;4895602;29;20068;-61
2023/03/05 07:13:36;;;;;;;2.83;1.42;;;1.80;99.90;;;;;;4895751;29;20499;-63
2023/03/05 07:16:07;;;;;;;7.18;1.00;;;2.50;99.90;;;;;;4895983;29;20025;-65
2023/03/05 07:18:33;;;;;;;11.05;2.78;;;1.90;99.90;;;;;;4895816;29;20025;-64
2023/03/05 07:21:03;;;;;;;9.63;1.27;;;1.90;99.90;;;;;;4895908;29;20025;-63
2023/03/05 07:23:29;;;;;;;2.65;1.10;;;1.90;99.90;;;;;;4895979;29;20061;-63
2023/03/05 07:25:55;;;;;;;4.60;1.02;;;1.40;99.90;;;;;;4896359;29;20040;-64
2023/03/05 07:28:21;;;;;;;4.35;0.95;;;;;;;;;;4895969;29;20025;-64
2023/03/05 07:30:58;;;;;;;15.23;1.20;;;1.90;99.90;;;;;;4895984;29;20028;-65
2023/03/05 07:33:24;;;;;;;7.43;0.80;;;1.80;99.90;;;;;;4895447;29;20025;-65
2023/03/05 07:35:50;;;;;;;4.63;1.23;;;1.80;99.90;;;;;;4895831;29;20029;-65
2023/03/05 07:38:16;;;;;;;8.90;0.70;;;;;;;;;;4895740;29;20048;-63
2023/03/05 07:40:42;;;;;;;5.90;0.77;;;;;;;;;;4895350;29;20028;-63
2023/03/05 07:43:08;;;;;;;4.53;0.80;;;;;;;;;;4895216;29;20099;-60
2023/03/05 07:45:37;;;;;;;7.07;1.05;;;2.10;99.90;;;;;;4896112;29;20060;-65
2023/03/05 07:48:03;;;;;;;9.98;1.00;;;;;;;;;;4898979;29;20052;-66
2023/03/05 07:50:31;;;;;;;13.60;1.15;;;2.90;99.90;;;;;;4899003;29;20507;-64
2023/03/05 07:52:57;;;;;;;4.45;0.80;;;;;;;;;;4898631;29;20032;-62
2023/03/05 07:55:23;;;;;;;5.82;0.80;;;1.90;99.90;;;;;;4898837;29;20036;-61
2023/03/05 07:57:49;;;;;;;5.25;0.82;;;2.00;99.90;;;;;;4898997;29;20039;-63
2023/03/05 08:00:15;;;;;;;6.68;0.88;;;2.00;99.90;;;;;;4898615;29;20088;-65
2023/03/05 08:02:41;;;;;;;7.00;1.17;;;;;;;;;;4898817;29;20033;-64
2023/03/05 08:05:07;;;;;;;3.92;0.95;;;1.90;99.90;;;;;;4898428;29;20056;-65
2023/03/05 08:07:32;;;;;;;6.25;0.80;;;2.00;99.90;;;;;;4898668;29;20063;-63
2023/03/05 08:09:58;;;;;;;12.98;1.48;;;;;;;;;;4898602;29;20033;-65
2023/03/05 08:12:24;;;;;;;4.00;1.08;;;;;;;;;;4898510;29;20452;-65
2023/03/05 08:14:50;;;;;;;5.25;1.00;;;1.90;99.90;;;;;;4898373;29;20076;-61
2023/03/05 08:17:16;;;;;;;10.57;1.00;;;2.10;99.90;;;;;;4898559;29;20028;-65
2023/03/05 08:19:42;;;;;;;13.40;1.08;;;5.20;99.90;;;;;;4898618;29;20052;-65
2023/03/05 08:22:07;;;;;;;5.38;1.00;;;2.20;99.90;;;;;;4898253;29;20020;-65
2023/03/05 08:24:33;;;;;;;8.02;0.70;;;;;;;;;;4898036;29;20024;-66
2023/03/05 08:26:59;;;;;;;10.77;1.17;;;;;;;;;;4898163;29;20499;-64
2023/03/05 08:29:25;;;;;;;13.20;1.50;;;2.30;99.90;;;;;;4898145;29;20468;-65
2023/03/05 08:31:52;;;;;;;5.00;0.73;;;2.70;99.90;;;;;;4898123;29;20036;-64
2023/03/05 08:34:21;;;;;;;26.60;2.35;;;2.50;99.90;;;;;;4897707;29;20039;-66
2023/03/05 08:36:47;;;;;;;7.32;1.15;;;;;;;;;;4897951;29;20080;-62
2023/03/05 08:39:13;;;;;;;10.27;1.05;;;3.10;99.90;;;;;;4897877;29;20033;-63
2023/03/05 08:41:39;;;;;;;3.83;0.75;;;2.90;99.90;;;;;;4897801;29;20036;-62
2023/03/05 08:44:05;;;;;;;3.60;0.88;;;2.90;99.90;;;;;;4897474;29;20036;-63
2023/03/05 08:46:33;;;;;;;7.68;1.45;;;3.00;99.90;;;;;;4897616;29;20519;-64
2023/03/05 08:48:59;;;;;;;3.97;0.82;;;;;;;;;;4897859;29;20033;-65
2023/03/05 08:51:26;;;;;;;11.77;2.00;;;3.10;99.90;;;;;;4897803;29;20124;-64
2023/03/05 08:53:53;;;;;;;10.52;1.13;;;3.00;99.90;;;;;;4897127;29;20088;-65
2023/03/05 08:56:19;;;;;;;3.83;1.00;;;2.90;99.90;;;;;;4897189;29;20033;-65
2023/03/05 08:58:46;;;;;;;3.78;0.70;;;2.90;99.90;;;;;;4897732;29;20025;-65
2023/03/05 09:01:12;;;;;;;17.70;1.00;;;;;;;;;;4911652;23;20108;-63
2023/03/05 09:03:38;;;;;;;11.40;1.88;;;;;;;;;;4897141;29;20036;-59
2023/03/05 09:06:07;;;;;;;6.75;1.27;;;3.10;99.90;;;;;;4897941;29;20029;-62
2023/03/05 09:08:34;;;;;;;12.20;1.08;;;3.10;99.90;;;;;;4897753;29;20075;-61
2023/03/05 09:11:04;;;;;;;5.93;1.10;;;3.20;99.90;;;;;;4897797;29;20029;-61
2023/03/05 09:13:30;;;;;;;6.35;0.98;;;;;;;;;;4881000;29;20491;-62
2023/03/05 09:15:58;;;;;;;5.45;0.77;;;4.00;99.90;;;;;;4897601;29;20039;-63
2023/03/05 09:18:24;;;;;;;4.88;1.63;;;3.00;99.90;;;;;;4897785;29;20024;-64
2023/03/05 09:20:50;;;;;;;4.68;0.70;;;3.00;99.90;;;;;;4897459;29;20091;-64
2023/03/05 09:23:16;;;;;;;11.23;1.20;;;;;;;;;;4897262;29;20024;-63
2023/03/05 09:25:42;;;;;;;7.63;0.80;;;;;;;;;;4897767;29;20039;-65
2023/03/05 09:28:08;;;;;;;6.45;2.13;;;;;;;;;;4897779;29;20029;-62
2023/03/05 09:30:34;;;;;;;6.03;1.15;;;;;;;;;;4891153;29;20514;-64
2023/03/05 09:33:03;;;;;;;8.70;1.40;;;3.00;99.90;;;;;;4897119;29;20443;-64
2023/03/05 09:35:30;;;;;;;5.05;1.00;;;;;;;;;;4897647;29;20115;-64
2023/03/05 09:37:56;;;;;;;10.63;0.95;;;3.20;99.90;;;;;;4908419;29;20108;-62
2023/03/05 09:40:22;;;;;;;4.95;1.02;;;3.20;99.90;;;;;;4915989;29;20087;-64
2023/03/05 09:43:14;;;;;;;5.43;0.73;;;3.10;99.90;;;;;;4896647;29;20028;-62
2023/03/05 09:45:59;;;;;;;4.63;0.88;;;3.30;99.90;;;;;;4884915;29;20529;-61
2023/03/05 09:48:38;;;;;;;2.85;0.80;;;3.20;99.90;;;;;;4911234;29;20092;-63
2023/03/05 09:51:04;;;;;;;8.80;0.85;;;;;;;;;;4902842;29;20032;-60
2023/03/05 09:53:45;;;;;;;5.53;2.03;;;3.40;99.90;;;;;;4915779;29;20031;-61
2023/03/05 09:56:27;;;;;;;8.63;0.93;;;3.30;99.90;;;;;;4915890;29;20439;-62
2023/03/05 09:58:57;;;;;;;5.47;2.83;;;3.30;99.90;;;;;;4907355;29;20028;-62
2023/03/05 10:01:38;;;;;;;8.23;2.58;;;3.30;99.90;;;;;;4896945;29;20036;-62
2023/03/05 10:04:11;;;;;;;5.32;1.40;;;3.40;99.90;;;;;;4909334;29;20036;-57
2023/03/05 10:06:49;;;;;;;4.68;1.02;;;3.40;99.90;;;;;;4917292;29;20028;-61
2023/03/05 10:09:29;;;;;;;4.90;0.90;;;3.10;99.90;;;;;;4915685;29;20028;-57
2023/03/05 10:12:24;;;;;;;8.48;3.05;;;3.20;99.90;;;;;;4916701;29;20122;-59
2023/03/05 10:14:49;;;;;;;8.18;1.33;;;2.90;99.90;;;;;;4915965;29;20430;-61
2023/03/05 10:17:44;;;;;;;4.47;1.38;;;3.10;99.90;;;;;;4915674;29;20040;-61
2023/03/05 10:20:41;;;;;;;5.90;0.95;;;3.20;99.90;;;;;;4915799;29;20099;-63
2023/03/05 10:23:07;;;;;;;19.05;7.22;;;;;;;;;;4915216;29;20028;-62
2023/03/05 10:25:52;;;;;;;11.25;2.75;;;3.10;99.90;;;;;;4898587;29;20036;-60
2023/03/05 10:28:35;;;;;;;9.32;1.52;;;3.10;99.90;;;;;;4899730;29;20103;-63
2023/03/05 10:31:37;;;;;;;4.72;1.25;;;3.00;99.90;;;;;;4899171;29;20153;-63
2023/03/05 10:34:29;;;;;;;6.25;1.17;;;3.10;99.90;;;;;;4899125;29;20566;-61
2023/03/05 10:37:17;;;;;;;2.83;0.80;;;2.90;99.90;;;;;;4889989;29;20032;-62
2023/03/05 10:39:58;;;;;;;2.88;0.95;;;2.70;99.90;;;;;;4899062;29;20391;-61
2023/03/05 10:42:29;;;;;;;3.17;1.02;;;2.80;99.90;;;;;;4896141;29;20119;-62
2023/03/05 10:44:58;;;;;;;7.82;1.17;;;2.70;99.90;;;;;;4882470;29;20033;-62
2023/03/05 10:47:27;;;;;;;6.13;0.98;;;2.70;99.90;;;;;;4882991;29;20112;-64
2023/03/05 10:49:54;;;;;;;13.60;1.23;;;2.70;99.90;;;;;;4897569;29;20039;-60
2023/03/05 10:52:35;;;;;;;11.13;1.30;;;2.70;99.90;;;;;;4896498;29;20085;-61
2023/03/05 10:55:16;;;;;;;6.70;0.95;;;2.20;99.90;;;;;;4895655;29;20024;-60
2023/03/05 10:57:43;;;;;;;6.85;1.30;;;2.80;99.90;;;;;;4896161;29;20029;-62
2023/03/05 11:00:21;;;;;;;13.13;5.65;;;2.60;99.90;;;;;;4896668;29;20436;-61
2023/03/05 11:02:53;;;;;;;14.38;1.33;;;2.70;99.90;;;;;;4886145;29;20051;-61
2023/03/05 11:05:39;;;;;;;7.43;1.02;;;2.50;99.90;;;;;;4900551;29;20103;-62
2023/03/05 11:08:33;;;;;;;4.68;1.17;;;2.30;99.90;;;;;;4904724;29;20033;-60
2023/03/05 11:11:03;;;;;;;2.75;1.13;;;2.50;99.90;;;;;;4893800;29;20041;-59
2023/03/05 11:13:28;;;;;;;4.45;1.15;;;2.50;99.90;;;;;;4896768;29;20032;-60
2023/03/05 11:16:05;;;;;;;14.88;1.25;;;2.60;99.90;;;;;;4879322;29;20048;-60
2023/03/05 11:18:36;;;;;;;10.15;1.55;;;2.80;99.90;;;;;;4897137;29;20194;-62
2023/03/05 11:21:12;;;;;;;5.60;1.05;;;3.00;99.90;;;;;;4894522;29;20369;-59
2023/03/05 11:23:38;;;;;;;4.00;1.30;;;3.60;99.90;;;;;;4892796;29;20036;-60
2023/03/05 11:26:12;;;;;;;8.02;4.25;;;3.30;99.90;;;;;;4898222;29;20510;-61
2023/03/05 11:28:38;;;;;;;3.47;1.50;;;;;;;;;;4889082;29;20040;-59
2023/03/05 11:31:06;;;;;;;4.57;1.25;;;;;;;;;;4887533;29;20036;-61
2023/03/05 11:33:32;;;;;;;10.13;1.50;;;;;;;;;;4898341;29;20032;-62
2023/03/05 11:36:19;;;;;;;12.60;5.28;;;2.10;99.90;;;;;;4905571;29;20047;-64
2023/03/05 11:38:56;;;;;;;16.83;5.50;;;3.10;99.90;;;;;;4890010;29;20036;-58
2023/03/05 11:41:46;;;;;;;9.18;1.23;;;3.10;99.90;;;;;;4918770;29;20515;-55
2023/03/05 11:44:20;;;;;;;2.80;1.25;;;3.40;99.90;;;;;;4918335;29;20348;-61
2023/03/05 11:46:52;;;;;;;9.37;3.60;;;3.60;99.90;;;;;;4917585;29;20032;-60
2023/03/05 11:49:23;;;;;;;5.30;1.40;;;3.70;99.90;;;;;;4918290;29;20051;-58
2023/03/05 11:52:26;;;;;;;7.15;3.92;;;3.50;99.90;;;;;;4916153;29;20506;-60
2023/03/05 11:55:16;;;;;;;8.65;1.20;;;3.60;99.90;;;;;;4828727;29;20042;-60
2023/03/05 11:57:52;;;;;;;6.60;1.08;;;3.50;99.90;;;;;;4877648;29;20033;-59
2023/03/05 12:00:24;;;;;;;3.00;0.88;;;3.40;99.90;;;;;;4891002;29;20084;-57
2023/03/05 12:02:53;;;;;;;9.70;0.88;;;3.10;99.90;;;;;;4890196;29;20052;-58
2023/03/05 12:05:20;;;;;;;3.65;1.00;;;3.20;99.90;;;;;;4883273;29;20373;-60
2023/03/05 12:07:49;;;;;;;28.33;2.45;;;3.10;99.90;;;;;;4879978;29;20029;-56
2023/03/05 12:10:23;;;;;;;6.32;1.55;;;2.90;99.90;;;;;;4879744;29;20044;-61
2023/03/05 12:12:59;;;;;;;3.45;1.25;;;3.00;99.90;;;;;;4879475;29;20032;-61
2023/03/05 12:15:28;;;;;;;4.65;1.30;;;2.90;99.90;;;;;;4878895;29;20029;-64
2023/03/05 12:17:54;;;;;;;9.10;4.15;;;;;;;;;;4879914;29;20073;-60
2023/03/05 12:20:40;;;;;;;5.72;1.33;;;3.20;99.90;;;;;;4880421;29;20393;-60
2023/03/05 12:23:13;;;;;;;2.58;1.45;;;3.50;99.90;;;;;;4879275;29;20029;-57
2023/03/05 12:25:55;;;;;;;8.32;1.50;;;3.90;99.90;;;;;;4879534;29;20033;-59
2023/03/05 12:28:30;;;;;;;39.80;15.35;;;3.90;99.90;;;;;;4879966;29;20048;-60
2023/03/05 12:31:08;;;;;;;4.80;1.13;;;4.20;99.90;;;;;;4879295;29;20492;-62
2023/03/05 12:33:42;;;;;;;5.18;0.98;;;4.30;99.90;;;;;;4879072;29;20025;-60
2023/03/05 12:36:19;;;;;;;2.75;1.02;;;4.30;99.90;;;;;;4879596;29;20026;-60
2023/03/05 12:38:50;;;;;;;3.72;1.63;;;4.40;99.90;;;;;;4879583;29;20021;-62
2023/03/05 12:41:22;;;;;;;4.70;1.10;;;4.30;99.90;;;;;;4879455;29;20077;-60
2023/03/05 12:44:06;;;;;;;5.55;1.63;;;4.20;99.90;;;;;;4878730;29;20484;-60
2023/03/05 12:46:45;;;;;;;13.15;2.47;;;4.20;99.90;;;;;;4879221;29;20033;-60
2023/03/05 12:49:16;;;;;;;5.22;0.93;;;3.90;99.90;;;;;;4879545;29;20401;-60
2023/03/05 12:51:44;;;;;;;8.48;3.72;;;3.70;99.90;;;;;;4879179;29;20048;-59
2023/03/05 12:54:18;;;;;;;12.70;2.53;;;3.80;99.90;;;;;;4879111;29;20066;-62
2023/03/05 12:56:46;;;;;;;1.77;0.82;;;3.50;99.90;;;;;;4879893;29;20033;-60
2023/03/05 12:59:14;;;;;;;1.77;0.77;;;3.50;99.90;;;;;;4863221;29;20119;-57
2023/03/05 13:01:50;;;;;;;1.85;0.88;;;3.30;99.90;;;;;;4878780;29;20123;-61
2023/03/05 13:04:22;;;;;;;3.35;0.85;;;3.40;99.90;;;;;;4878389;29;20085;-56
2023/03/05 13:07:12;;;;;;;6.85;1.13;;;3.80;99.90;;;;;;4878789;29;20488;-59
2023/03/05 13:09:39;;;;;;;6.20;1.10;;;;;;;;;;4878138;29;20041;-60
2023/03/05 13:12:12;;;;;;;6.50;1.10;;;3.90;99.90;;;;;;4878086;29;20460;-61
2023/03/05 13:14:45;;;;;;;5.47;1.08;;;4.30;99.90;;;;;;4877657;29;20044;-62
2023/03/05 13:17:31;;;;;;;5.57;1.00;;;4.30;99.90;;;;;;4878304;29;20460;-60
2023/03/05 13:19:58;;;;;;;10.88;4.10;;;4.30;99.90;;;;;;4879323;29;20460;-60
2023/03/05 13:22:25;;;;;;;18.63;10.68;;;4.60;99.90;;;;;;4882817;29;20089;-62
2023/03/05 13:25:14;;;;;;;11.27;6.30;;;4.70;99.90;;;;;;4878608;29;20089;-63
2023/03/05 13:27:40;;;;;;;5.65;1.70;;;;;;;;;;4879142;29;20093;-61
2023/03/05 13:30:20;;;;;;;8.73;1.92;;;4.70;99.90;;;;;;4895021;29;20032;-61
2023/03/05 13:32:49;;;;;;;3.08;1.20;;;4.60;99.90;;;;;;4896101;29;20033;-61
2023/03/05 13:35:15;;;;;;;6.72;1.20;;;;;;;;;;4895410;29;20035;-61